CheckWX is a tool to help pilots better visualize weather data.  It is not intended as a substitute for an official pre-flight weather briefing.

22:52:00 UTC

KLVK METAR
Livermore Municipal Airport
Livermore, California, USA
Current

59 mins ago

KLVK 202153Z 30013KT 10SM CLR 26/12 A2988 RMK AO2 SLP114 T02610122
Observed
Jul-20 @ 21:53 UTC
Wind
  • 300° at 13 KTS
Visibility
10 SM
Flight Rules
VFR
Cloud Levels
  • Clear skies
Temperature
26°C / 79°F
Dewpoint
12°C / 54°F
Humidity
42%
Altimeter
29.88" Hg
Pressure
1011.82 hPa
Previous

2 hours ago

KLVK 202053Z 29011KT 10SM CLR 27/12 A2990 RMK AO2 SLP120 T02670122 56013
Observed
Jul-20 @ 20:53 UTC
Wind
  • 290° at 11 KTS
Visibility
10 SM
Flight Rules
VFR
Cloud Levels
  • Clear skies
Temperature
27°C / 81°F
Dewpoint
12°C / 54°F
Humidity
39%
Altimeter
29.9" Hg
Pressure
1012.52 hPa
Previous

3 hours ago

KLVK 201953Z 28010G16KT 10SM CLR 25/13 A2991 RMK AO2 SLP124 T02500128
Observed
Jul-20 @ 19:53 UTC
Wind
  • 280° at 10 KTS
  • Gusting to 16 KTS
Visibility
10 SM
Flight Rules
VFR
Cloud Levels
  • Clear skies
Temperature
25°C / 77°F
Dewpoint
13°C / 55°F
Humidity
47%
Altimeter
29.91" Hg
Pressure
1012.92 hPa